»·PEaware :: N256Z KSAF-KAPA

N256Z :: KSAF-KAPA

FLIGHT INFORMATION

Flight Status: Arrived
Operator: Privately registered:
United States
More flights under this callsign
Pilot: Gregory A. (9731)
Aircraft: PIPER PA-46-500TP MALIBU MERIDIAN
(P46T)
More flights by this aircraft type
Origin: KSAF Santa Fe Mun
United States
Destination: KAPA Centennial
United States
More flights between these airports :: More routes between these airports
Route: +POAKE2 TAS ALS LARKS9
File this flight plan on PilotEdge
Remarks:
Altitude:
(Current/Filed)
270ft
Speed:
(Current/Filed)
260kts
Departed: 22-Apr-19 03:10 PM
Arrived: 22-Apr-19 04:23 PM
Distance/Time
Traveled:
245nm/1:12
Distance/Time
To Go:
Arrived

Flight Plot

Page will automatically refresh every two minutes.

Flight plan parsing failed; only flown route is shown


Map Options




Map Legend


Flown Route
Filed Route
Departure Airport
Arrival Airport
Navaid (VOR, NDB)
Fix

Horizontal Profiles

Position Reports

Time Latitude Longitude Heading Altitude Ground
Speed
22-Apr-19 14:53 33.301992 -111.665811 49 1386ft 0kts
22-Apr-19 14:54 33.301992 -111.665811 49 1386ft 0kts
22-Apr-19 14:55 33.301992 -111.665811 49 1386ft 0kts
22-Apr-19 14:56 35.617391 -106.085514 342 6352ft 0kts
22-Apr-19 14:58 35.617391 -106.085514 342 6352ft 0kts
22-Apr-19 14:59 35.617391 -106.085514 342 6352ft 0kts
22-Apr-19 15:00 35.617393 -106.085515 342 6352ft 0kts
22-Apr-19 15:01 35.617396 -106.085516 342 6352ft 0kts
22-Apr-19 15:02 35.617398 -106.085517 342 6352ft 0kts
22-Apr-19 15:03 35.617401 -106.085518 341 6352ft 0kts
22-Apr-19 15:04 35.617007 -106.085705 151 6352ft 4kts
22-Apr-19 15:05 35.616304 -106.084735 112 6352ft 0kts
22-Apr-19 15:06 35.614953 -106.081525 197 6352ft 6kts
22-Apr-19 15:07 35.614735 -106.081615 199 6352ft 0kts
22-Apr-19 15:08 35.614694 -106.081633 200 6352ft 2kts
22-Apr-19 15:09 35.614349 -106.082161 292 6352ft 0kts
22-Apr-19 15:10 35.621808 -106.105661 298 6812ft 152kts
22-Apr-19 15:11 35.657760 -106.103159 28 8814ft 141kts
22-Apr-19 15:12 35.692815 -106.076514 28 10848ft 159kts
22-Apr-19 15:13 35.732222 -106.042904 28 12884ft 187kts
22-Apr-19 15:14 35.778787 -106.030381 351 14941ft 181kts
22-Apr-19 15:15 35.829126 -106.022827 357 16950ft 180kts
22-Apr-19 15:16 35.878002 -106.015308 354 18949ft 174kts
22-Apr-19 15:17 35.925779 -106.008270 352 20949ft 169kts
22-Apr-19 15:18 35.971408 -106.001489 351 22939ft 160kts
22-Apr-19 15:19 36.022238 -105.994459 353 23420ft 207kts
22-Apr-19 15:20 36.079109 -105.985644 353 24001ft 202kts
22-Apr-19 15:21 36.134650 -105.977296 352 24692ft 199kts
22-Apr-19 15:22 36.189432 -105.969154 352 25383ft 198kts
22-Apr-19 15:23 36.243858 -105.961024 351 26074ft 196kts
22-Apr-19 15:23 36.289137 -105.954292 351 26652ft 195kts
22-Apr-19 15:25 36.352096 -105.944926 350 27381ft 197kts
22-Apr-19 15:25 36.398977 -105.938031 351 27435ft 209kts
22-Apr-19 15:27 36.466979 -105.927730 351 27434ft 211kts
22-Apr-19 15:28 36.526316 -105.918967 354 27370ft 229kts
22-Apr-19 15:28 36.585596 -105.910424 1 27247ft 280kts
22-Apr-19 15:30 36.679495 -105.898167 0 27245ft 297kts
22-Apr-19 15:30 36.748504 -105.889591 0 27246ft 298kts
22-Apr-19 15:31 36.830759 -105.879460 0 27343ft 296kts
22-Apr-19 15:32 36.913008 -105.869407 0 27351ft 298kts
22-Apr-19 15:33 36.995478 -105.859269 0 27328ft 298kts
22-Apr-19 15:34 37.078561 -105.849064 0 27232ft 298kts
22-Apr-19 15:35 37.160929 -105.838919 359 27232ft 297kts
22-Apr-19 15:36 37.243043 -105.828759 359 27231ft 296kts
22-Apr-19 15:37 37.325282 -105.819784 354 27229ft 293kts
22-Apr-19 15:38 37.405784 -105.826841 346 27229ft 289kts
22-Apr-19 15:39 37.485370 -105.838818 345 27229ft 288kts
22-Apr-19 15:40 37.564752 -105.851748 344 27229ft 288kts
22-Apr-19 15:41 37.644301 -105.864982 345 27230ft 287kts
22-Apr-19 15:42 37.723518 -105.878222 344 27243ft 287kts
22-Apr-19 15:43 37.802673 -105.891541 344 27243ft 287kts
22-Apr-19 15:44 37.881985 -105.904862 344 27239ft 287kts
22-Apr-19 15:45 37.961001 -105.918227 344 27232ft 287kts
22-Apr-19 15:46 38.040040 -105.931635 344 27225ft 287kts
22-Apr-19 15:47 38.119070 -105.945040 344 27227ft 286kts
22-Apr-19 15:48 38.198269 -105.958459 344 27239ft 286kts
22-Apr-19 15:49 38.277209 -105.971891 344 27260ft 286kts
22-Apr-19 15:50 38.356155 -105.985280 344 27291ft 286kts
22-Apr-19 15:51 38.435386 -105.998960 344 27180ft 288kts
22-Apr-19 15:52 38.513789 -106.012416 345 26152ft 282kts
22-Apr-19 15:53 38.590575 -106.025535 346 25069ft 272kts
22-Apr-19 15:54 38.663113 -106.038325 344 24237ft 251kts
22-Apr-19 15:55 38.729792 -106.049496 344 23635ft 240kts
22-Apr-19 15:56 38.797531 -106.021439 43 22252ft 328kts
22-Apr-19 15:57 38.855639 -105.934720 54 21030ft 319kts
22-Apr-19 15:58 38.908707 -105.839984 49 19416ft 288kts
22-Apr-19 15:59 38.953384 -105.775080 48 18678ft 211kts
22-Apr-19 16:00 38.988967 -105.722224 49 17941ft 186kts
22-Apr-19 16:01 39.024076 -105.668326 50 17122ft 208kts
22-Apr-19 16:02 39.059343 -105.613752 50 17079ft 198kts
22-Apr-19 16:03 39.095732 -105.557274 50 17086ft 209kts
22-Apr-19 16:04 39.133205 -105.498963 50 17084ft 211kts
22-Apr-19 16:05 39.170346 -105.441211 50 17079ft 208kts
22-Apr-19 16:06 39.207016 -105.384007 50 17070ft 206kts
22-Apr-19 16:07 39.243266 -105.327329 50 17060ft 203kts
22-Apr-19 16:08 39.279242 -105.271054 50 17050ft 203kts
22-Apr-19 16:09 39.302722 -105.206012 86 16613ft 215kts
22-Apr-19 16:10 39.307211 -105.132695 87 15708ft 231kts
22-Apr-19 16:11 39.308053 -105.057284 101 14392ft 200kts
22-Apr-19 16:12 39.297776 -104.989068 103 12794ft 187kts
22-Apr-19 16:13 39.287098 -104.924798 102 11196ft 180kts
22-Apr-19 16:14 39.289651 -104.865326 37 9601ft 178kts
22-Apr-19 16:15 39.335311 -104.862910 7 8500ft 150kts
22-Apr-19 16:16 39.366215 -104.845026 13 7417ft 111kts
22-Apr-19 16:17 39.398928 -104.843800 355 6737ft 128kts
22-Apr-19 16:18 39.432240 -104.846733 352 7283ft 108kts
22-Apr-19 16:19 39.460941 -104.839481 8 8136ft 138kts
22-Apr-19 16:20 39.499762 -104.852785 354 8808ft 135kts
22-Apr-19 16:21 39.544703 -104.849472 357 7923ft 160kts
22-Apr-19 16:22 39.571129 -104.850909 356 5887ft 6kts
22-Apr-19 16:23 39.575696 -104.848277 355 5887ft 20kts
22-Apr-19 16:24 39.576731 -104.848491 90 5887ft 0kts

Navigation Log

Ident Type
Flight plan parsing failed, navigation log unavailable